sensor_id;sensor_type;location;lat;lon;timestamp;temperature;humidity
78696;SHT31;68030;51.980;5.646;2023-04-01T00:02:19;13.1;74.0
78696;SHT31;68030;51.980;5.646;2023-04-01T00:04:49;13.1;73.9
78696;SHT31;68030;51.980;5.646;2023-04-01T00:07:20;13.2;74.0
78696;SHT31;68030;51.980;5.646;2023-04-01T00:09:51;13.2;73.8
78696;SHT31;68030;51.980;5.646;2023-04-01T00:12:22;13.2;73.8
78696;SHT31;68030;51.980;5.646;2023-04-01T00:14:52;13.2;73.6
78696;SHT31;68030;51.980;5.646;2023-04-01T00:17:22;13.2;73.2
78696;SHT31;68030;51.980;5.646;2023-04-01T00:19:54;13.2;73.1
78696;SHT31;68030;51.980;5.646;2023-04-01T00:22:25;13.3;73.3
78696;SHT31;68030;51.980;5.646;2023-04-01T00:24:55;13.3;73.4
78696;SHT31;68030;51.980;5.646;2023-04-01T00:27:25;13.3;73.0
78696;SHT31;68030;51.980;5.646;2023-04-01T00:29:54;13.3;73.2
78696;SHT31;68030;51.980;5.646;2023-04-01T00:32:24;13.3;73.0
78696;SHT31;68030;51.980;5.646;2023-04-01T00:34:57;13.3;73.1
78696;SHT31;68030;51.980;5.646;2023-04-01T00:37:28;13.3;73.1
78696;SHT31;68030;51.980;5.646;2023-04-01T00:39:57;13.3;73.0
78696;SHT31;68030;51.980;5.646;2023-04-01T00:42:29;13.3;72.9
78696;SHT31;68030;51.980;5.646;2023-04-01T00:45:26;13.3;72.9
78696;SHT31;68030;51.980;5.646;2023-04-01T00:47:59;13.3;72.9
78696;SHT31;68030;51.980;5.646;2023-04-01T00:50:32;13.4;72.8
78696;SHT31;68030;51.980;5.646;2023-04-01T00:53:05;13.4;72.6
78696;SHT31;68030;51.980;5.646;2023-04-01T00:55:39;13.4;73.0
78696;SHT31;68030;51.980;5.646;2023-04-01T00:58:16;13.4;72.9
78696;SHT31;68030;51.980;5.646;2023-04-01T01:00:49;13.4;72.9
78696;SHT31;68030;51.980;5.646;2023-04-01T01:03:22;13.4;73.0
78696;SHT31;68030;51.980;5.646;2023-04-01T01:06:12;13.4;73.1
78696;SHT31;68030;51.980;5.646;2023-04-01T01:08:57;13.4;73.0
78696;SHT31;68030;51.980;5.646;2023-04-01T01:11:37;13.4;73.0
78696;SHT31;68030;51.980;5.646;2023-04-01T01:14:13;13.3;72.8
78696;SHT31;68030;51.980;5.646;2023-04-01T01:16:53;13.3;73.0
78696;SHT31;68030;51.980;5.646;2023-04-01T01:19:46;13.3;72.9
78696;SHT31;68030;51.980;5.646;2023-04-01T01:22:28;13.3;73.0
78696;SHT31;68030;51.980;5.646;2023-04-01T01:25:25;13.3;73.1
78696;SHT31;68030;51.980;5.646;2023-04-01T01:28:10;13.3;73.0
78696;SHT31;68030;51.980;5.646;2023-04-01T01:30:47;13.3;72.7
78696;SHT31;68030;51.980;5.646;2023-04-01T01:34:09;13.2;72.3
78696;SHT31;68030;51.980;5.646;2023-04-01T01:36:45;13.2;72.3
78696;SHT31;68030;51.980;5.646;2023-04-01T01:39:19;13.2;72.3
78696;SHT31;68030;51.980;5.646;2023-04-01T01:41:56;13.2;72.2
78696;SHT31;68030;51.980;5.646;2023-04-01T01:44:29;13.2;72.1
78696;SHT31;68030;51.980;5.646;2023-04-01T01:47:00;13.2;71.9
78696;SHT31;68030;51.980;5.646;2023-04-01T01:49:32;13.1;72.1
78696;SHT31;68030;51.980;5.646;2023-04-01T01:52:03;13.1;72.2
78696;SHT31;68030;51.980;5.646;2023-04-01T01:54:33;13.1;71.6
78696;SHT31;68030;51.980;5.646;2023-04-01T01:57:07;13.1;71.7
78696;SHT31;68030;51.980;5.646;2023-04-01T01:59:40;13.1;71.2
78696;SHT31;68030;51.980;5.646;2023-04-01T02:02:15;13.1;71.4
78696;SHT31;68030;51.980;5.646;2023-04-01T02:04:47;13.1;71.3
78696;SHT31;68030;51.980;5.646;2023-04-01T02:07:21;13.1;71.4
78696;SHT31;68030;51.980;5.646;2023-04-01T02:09:53;13.1;71.5
78696;SHT31;68030;51.980;5.646;2023-04-01T02:12:24;13.1;71.7
78696;SHT31;68030;51.980;5.646;2023-04-01T02:14:57;13.0;72.0
78696;SHT31;68030;51.980;5.646;2023-04-01T02:17:30;13.0;72.3
78696;SHT31;68030;51.980;5.646;2023-04-01T02:20:04;13.0;72.4
78696;SHT31;68030;51.980;5.646;2023-04-01T02:22:39;13.0;72.8
78696;SHT31;68030;51.980;5.646;2023-04-01T02:25:14;13.0;73.0
78696;SHT31;68030;51.980;5.646;2023-04-01T02:27:46;13.0;72.9
78696;SHT31;68030;51.980;5.646;2023-04-01T02:30:17;12.9;72.7
78696;SHT31;68030;51.980;5.646;2023-04-01T02:32:48;12.9;72.7
78696;SHT31;68030;51.980;5.646;2023-04-01T02:35:19;12.9;73.0
78696;SHT31;68030;51.980;5.646;2023-04-01T02:37:52;12.9;73.2
78696;SHT31;68030;51.980;5.646;2023-04-01T02:40:22;12.9;72.9
78696;SHT31;68030;51.980;5.646;2023-04-01T02:42:52;12.9;72.6
78696;SHT31;68030;51.980;5.646;2023-04-01T02:45:24;12.9;73.0
78696;SHT31;68030;51.980;5.646;2023-04-01T02:47:53;12.9;73.0
78696;SHT31;68030;51.980;5.646;2023-04-01T02:50:23;12.9;73.0
78696;SHT31;68030;51.980;5.646;2023-04-01T02:52:53;12.9;72.9
78696;SHT31;68030;51.980;5.646;2023-04-01T02:55:23;12.9;72.9
78696;SHT31;68030;51.980;5.646;2023-04-01T02:57:53;12.9;72.8
78696;SHT31;68030;51.980;5.646;2023-04-01T03:00:23;12.9;72.8
78696;SHT31;68030;51.980;5.646;2023-04-01T03:02:53;12.9;72.6
78696;SHT31;68030;51.980;5.646;2023-04-01T03:05:24;12.9;72.3
78696;SHT31;68030;51.980;5.646;2023-04-01T03:07:55;12.9;72.5
78696;SHT31;68030;51.980;5.646;2023-04-01T03:10:25;12.9;72.6
78696;SHT31;68030;51.980;5.646;2023-04-01T03:12:55;12.8;72.5
78696;SHT31;68030;51.980;5.646;2023-04-01T03:15:24;12.8;72.7
78696;SHT31;68030;51.980;5.646;2023-04-01T03:17:57;12.8;72.8
78696;SHT31;68030;51.980;5.646;2023-04-01T03:20:26;12.8;72.8
78696;SHT31;68030;51.980;5.646;2023-04-01T03:22:56;12.8;72.7
78696;SHT31;68030;51.980;5.646;2023-04-01T03:25:25;12.8;72.7
78696;SHT31;68030;51.980;5.646;2023-04-01T03:27:56;12.8;72.6
78696;SHT31;68030;51.980;5.646;2023-04-01T03:30:27;12.8;72.6
78696;SHT31;68030;51.980;5.646;2023-04-01T03:32:58;12.8;72.6
78696;SHT31;68030;51.980;5.646;2023-04-01T03:35:28;12.8;72.6
78696;SHT31;68030;51.980;5.646;2023-04-01T03:37:58;12.8;72.7
78696;SHT31;68030;51.980;5.646;2023-04-01T03:40:30;12.7;72.8
78696;SHT31;68030;51.980;5.646;2023-04-01T03:43:00;12.7;72.8
78696;SHT31;68030;51.980;5.646;2023-04-01T03:45:31;12.7;72.9
78696;SHT31;68030;51.980;5.646;2023-04-01T03:48:00;12.7;73.0
78696;SHT31;68030;51.980;5.646;2023-04-01T03:50:30;12.7;73.0
78696;SHT31;68030;51.980;5.646;2023-04-01T03:53:00;12.7;73.3
78696;SHT31;68030;51.980;5.646;2023-04-01T03:55:29;12.7;73.3
78696;SHT31;68030;51.980;5.646;2023-04-01T03:57:59;12.7;73.2
78696;SHT31;68030;51.980;5.646;2023-04-01T04:00:30;12.6;73.3
78696;SHT31;68030;51.980;5.646;2023-04-01T04:03:00;12.6;73.3
78696;SHT31;68030;51.980;5.646;2023-04-01T04:05:30;12.6;73.3
78696;SHT31;68030;51.980;5.646;2023-04-01T04:08:00;12.6;73.4
78696;SHT31;68030;51.980;5.646;2023-04-01T04:10:30;12.6;73.5
78696;SHT31;68030;51.980;5.646;2023-04-01T04:12:59;12.6;73.6
78696;SHT31;68030;51.980;5.646;2023-04-01T04:15:29;12.6;73.6
78696;SHT31;68030;51.980;5.646;2023-04-01T04:17:59;12.6;73.6
78696;SHT31;68030;51.980;5.646;2023-04-01T04:20:28;12.6;73.7
78696;SHT31;68030;51.980;5.646;2023-04-01T04:23:00;12.6;73.8
78696;SHT31;68030;51.980;5.646;2023-04-01T04:25:29;12.6;73.9
78696;SHT31;68030;51.980;5.646;2023-04-01T04:27:59;12.5;74.1
78696;SHT31;68030;51.980;5.646;2023-04-01T04:30:28;12.5;74.2
78696;SHT31;68030;51.980;5.646;2023-04-01T04:32:58;12.5;74.4
78696;SHT31;68030;51.980;5.646;2023-04-01T04:35:28;12.5;74.5
78696;SHT31;68030;51.980;5.646;2023-04-01T04:37:57;12.5;74.6
78696;SHT31;68030;51.980;5.646;2023-04-01T04:40:27;12.5;74.8
78696;SHT31;68030;51.980;5.646;2023-04-01T04:42:57;12.5;74.9
78696;SHT31;68030;51.980;5.646;2023-04-01T04:45:27;12.5;74.8
78696;SHT31;68030;51.980;5.646;2023-04-01T04:47:57;12.4;74.9
78696;SHT31;68030;51.980;5.646;2023-04-01T04:50:27;12.4;75.0
78696;SHT31;68030;51.980;5.646;2023-04-01T04:52:57;12.4;75.1
78696;SHT31;68030;51.980;5.646;2023-04-01T04:55:27;12.4;75.2
78696;SHT31;68030;51.980;5.646;2023-04-01T04:57:57;12.4;75.3
78696;SHT31;68030;51.980;5.646;2023-04-01T05:00:27;12.4;75.3
78696;SHT31;68030;51.980;5.646;2023-04-01T05:02:57;12.4;75.3
78696;SHT31;68030;51.980;5.646;2023-04-01T05:05:27;12.4;75.4
78696;SHT31;68030;51.980;5.646;2023-04-01T05:07:57;12.5;75.5
78696;SHT31;68030;51.980;5.646;2023-04-01T05:10:27;12.5;75.5
78696;SHT31;68030;51.980;5.646;2023-04-01T05:12:58;12.5;75.6
78696;SHT31;68030;51.980;5.646;2023-04-01T05:15:28;12.5;75.6
78696;SHT31;68030;51.980;5.646;2023-04-01T05:18:01;12.5;75.7
78696;SHT31;68030;51.980;5.646;2023-04-01T05:20:31;12.5;75.7
78696;SHT31;68030;51.980;5.646;2023-04-01T05:23:01;12.6;75.7
78696;SHT31;68030;51.980;5.646;2023-04-01T05:25:31;12.6;75.7
78696;SHT31;68030;51.980;5.646;2023-04-01T05:28:01;12.6;75.7
78696;SHT31;68030;51.980;5.646;2023-04-01T05:30:30;12.6;75.7
78696;SHT31;68030;51.980;5.646;2023-04-01T05:33:00;12.6;75.7
78696;SHT31;68030;51.980;5.646;2023-04-01T05:35:30;12.6;75.8
78696;SHT31;68030;51.980;5.646;2023-04-01T05:37:59;12.7;75.7
78696;SHT31;68030;51.980;5.646;2023-04-01T05:40:30;12.7;75.7
78696;SHT31;68030;51.980;5.646;2023-04-01T05:43:00;12.7;75.7
78696;SHT31;68030;51.980;5.646;2023-04-01T05:45:32;12.7;75.8
78696;SHT31;68030;51.980;5.646;2023-04-01T05:48:02;12.7;75.7
78696;SHT31;68030;51.980;5.646;2023-04-01T05:50:32;12.8;75.7
78696;SHT31;68030;51.980;5.646;2023-04-01T05:53:02;12.8;75.5
78696;SHT31;68030;51.980;5.646;2023-04-01T05:55:34;12.8;75.5
78696;SHT31;68030;51.980;5.646;2023-04-01T05:58:05;12.8;75.5
78696;SHT31;68030;51.980;5.646;2023-04-01T06:00:35;12.8;75.4
78696;SHT31;68030;51.980;5.646;2023-04-01T06:03:05;12.8;75.4
78696;SHT31;68030;51.980;5.646;2023-04-01T06:05:39;12.9;75.4
78696;SHT31;68030;51.980;5.646;2023-04-01T06:08:13;12.9;75.4
78696;SHT31;68030;51.980;5.646;2023-04-01T06:10:55;12.9;75.4
78696;SHT31;68030;51.980;5.646;2023-04-01T06:13:47;12.9;75.4
78696;SHT31;68030;51.980;5.646;2023-04-01T06:16:32;12.9;75.3
78696;SHT31;68030;51.980;5.646;2023-04-01T06:19:25;12.9;75.2
78696;SHT31;68030;51.980;5.646;2023-04-01T06:25:49;12.9;75.2
78696;SHT31;68030;51.980;5.646;2023-04-01T06:28:51;12.9;75.2
78696;SHT31;68030;51.980;5.646;2023-04-01T06:31:43;13.0;75.4
78696;SHT31;68030;51.980;5.646;2023-04-01T06:34:33;13.0;75.4
78696;SHT31;68030;51.980;5.646;2023-04-01T06:37:27;13.0;75.6
78696;SHT31;68030;51.980;5.646;2023-04-01T06:40:32;13.0;75.5
78696;SHT31;68030;51.980;5.646;2023-04-01T06:43:15;13.1;75.2
78696;SHT31;68030;51.980;5.646;2023-04-01T06:45:55;13.1;74.9
78696;SHT31;68030;51.980;5.646;2023-04-01T06:48:41;13.1;74.6
78696;SHT31;68030;51.980;5.646;2023-04-01T06:51:24;13.2;74.2
78696;SHT31;68030;51.980;5.646;2023-04-01T06:54:04;13.2;74.2
78696;SHT31;68030;51.980;5.646;2023-04-01T06:56:40;13.2;74.2
78696;SHT31;68030;51.980;5.646;2023-04-01T06:59:15;13.2;74.2
78696;SHT31;68030;51.980;5.646;2023-04-01T07:01:50;13.2;74.0
78696;SHT31;68030;51.980;5.646;2023-04-01T07:04:28;13.3;74.0
78696;SHT31;68030;51.980;5.646;2023-04-01T07:07:03;13.3;74.0
78696;SHT31;68030;51.980;5.646;2023-04-01T07:09:38;13.3;74.0
78696;SHT31;68030;51.980;5.646;2023-04-01T07:12:18;13.3;74.1
78696;SHT31;68030;51.980;5.646;2023-04-01T07:14:56;13.3;73.7
78696;SHT31;68030;51.980;5.646;2023-04-01T07:17:30;13.3;73.9
78696;SHT31;68030;51.980;5.646;2023-04-01T07:20:10;13.4;73.7
78696;SHT31;68030;51.980;5.646;2023-04-01T07:22:42;13.4;73.7
78696;SHT31;68030;51.980;5.646;2023-04-01T07:25:15;13.4;73.8
78696;SHT31;68030;51.980;5.646;2023-04-01T07:27:46;13.4;73.5
78696;SHT31;68030;51.980;5.646;2023-04-01T07:30:19;13.4;73.9
78696;SHT31;68030;51.980;5.646;2023-04-01T07:32:54;13.4;73.8
78696;SHT31;68030;51.980;5.646;2023-04-01T07:35:31;13.4;73.7
78696;SHT31;68030;51.980;5.646;2023-04-01T07:38:14;13.4;73.7
78696;SHT31;68030;51.980;5.646;2023-04-01T07:40:54;13.4;73.7
78696;SHT31;68030;51.980;5.646;2023-04-01T07:43:44;13.4;74.2
78696;SHT31;68030;51.980;5.646;2023-04-01T07:46:33;13.4;73.7
78696;SHT31;68030;51.980;5.646;2023-04-01T07:49:11;13.4;73.9
78696;SHT31;68030;51.980;5.646;2023-04-01T07:51:50;13.4;73.8
78696;SHT31;68030;51.980;5.646;2023-04-01T07:54:35;13.4;73.9
78696;SHT31;68030;51.980;5.646;2023-04-01T07:57:14;13.4;74.0
78696;SHT31;68030;51.980;5.646;2023-04-01T07:59:56;13.4;73.8
78696;SHT31;68030;51.980;5.646;2023-04-01T08:02:42;13.4;73.7
78696;SHT31;68030;51.980;5.646;2023-04-01T08:05:22;13.4;73.2
78696;SHT31;68030;51.980;5.646;2023-04-01T08:08:03;13.4;73.2
78696;SHT31;68030;51.980;5.646;2023-04-01T08:10:44;13.4;73.6
78696;SHT31;68030;51.980;5.646;2023-04-01T08:13:24;13.4;73.4
78696;SHT31;68030;51.980;5.646;2023-04-01T08:16:08;13.4;74.1
78696;SHT31;68030;51.980;5.646;2023-04-01T08:18:50;13.4;73.9
78696;SHT31;68030;51.980;5.646;2023-04-01T08:21:27;13.4;74.1
78696;SHT31;68030;51.980;5.646;2023-04-01T08:24:04;13.4;74.6
78696;SHT31;68030;51.980;5.646;2023-04-01T08:26:40;13.4;74.1
78696;SHT31;68030;51.980;5.646;2023-04-01T08:29:16;13.4;74.2
78696;SHT31;68030;51.980;5.646;2023-04-01T08:31:53;13.4;74.3
78696;SHT31;68030;51.980;5.646;2023-04-01T08:34:30;13.5;74.5
78696;SHT31;68030;51.980;5.646;2023-04-01T08:37:07;13.5;74.4
78696;SHT31;68030;51.980;5.646;2023-04-01T08:39:40;13.5;74.8
78696;SHT31;68030;51.980;5.646;2023-04-01T08:42:35;13.5;75.1
78696;SHT31;68030;51.980;5.646;2023-04-01T08:45:15;13.5;74.9
78696;SHT31;68030;51.980;5.646;2023-04-01T08:48:14;13.5;75.2
78696;SHT31;68030;51.980;5.646;2023-04-01T08:52:09;13.5;75.1
78696;SHT31;68030;51.980;5.646;2023-04-01T08:55:04;13.5;75.3
78696;SHT31;68030;51.980;5.646;2023-04-01T08:57:49;13.5;74.7
78696;SHT31;68030;51.980;5.646;2023-04-01T09:00:32;13.5;74.5
78696;SHT31;68030;51.980;5.646;2023-04-01T09:03:23;13.5;74.8
78696;SHT31;68030;51.980;5.646;2023-04-01T09:06:39;13.5;74.4
78696;SHT31;68030;51.980;5.646;2023-04-01T09:14:31;13.5;74.7
78696;SHT31;68030;51.980;5.646;2023-04-01T09:17:30;13.5;74.1
78696;SHT31;68030;51.980;5.646;2023-04-01T09:20:26;13.5;73.8
78696;SHT31;68030;51.980;5.646;2023-04-01T09:23:19;13.5;74.4
78696;SHT31;68030;51.980;5.646;2023-04-01T09:26:42;13.4;74.4
78696;SHT31;68030;51.980;5.646;2023-04-01T09:29:27;13.4;74.5
78696;SHT31;68030;51.980;5.646;2023-04-01T09:32:29;13.4;75.1
78696;SHT31;68030;51.980;5.646;2023-04-01T09:35:21;13.4;75.6
78696;SHT31;68030;51.980;5.646;2023-04-01T09:38:04;13.4;75.3
78696;SHT31;68030;51.980;5.646;2023-04-01T09:40:45;13.4;75.1
78696;SHT31;68030;51.980;5.646;2023-04-01T09:43:27;13.4;75.4
78696;SHT31;68030;51.980;5.646;2023-04-01T09:46:14;13.5;75.0
78696;SHT31;68030;51.980;5.646;2023-04-01T09:49:03;13.5;74.7
78696;SHT31;68030;51.980;5.646;2023-04-01T09:51:48;13.5;74.6
78696;SHT31;68030;51.980;5.646;2023-04-01T09:54:40;13.5;74.9
78696;SHT31;68030;51.980;5.646;2023-04-01T10:01:42;13.7;74.2
78696;SHT31;68030;51.980;5.646;2023-04-01T10:05:52;13.7;75.0
78696;SHT31;68030;51.980;5.646;2023-04-01T10:10:40;13.8;74.5
78696;SHT31;68030;51.980;5.646;2023-04-01T10:15:27;14.0;74.7
78696;SHT31;68030;51.980;5.646;2023-04-01T10:18:19;14.2;73.7
78696;SHT31;68030;51.980;5.646;2023-04-01T10:21:16;14.3;73.9
78696;SHT31;68030;51.980;5.646;2023-04-01T10:24:14;14.5;72.4
78696;SHT31;68030;51.980;5.646;2023-04-01T10:27:04;14.6;72.5
78696;SHT31;68030;51.980;5.646;2023-04-01T10:35:53;15.2;69.2
78696;SHT31;68030;51.980;5.646;2023-04-01T10:49:14;15.7;66.8
78696;SHT31;68030;51.980;5.646;2023-04-01T10:57:52;16.1;65.0
78696;SHT31;68030;51.980;5.646;2023-04-01T11:04:56;16.5;64.7
78696;SHT31;68030;51.980;5.646;2023-04-01T11:14:07;16.7;63.3
78696;SHT31;68030;51.980;5.646;2023-04-01T11:17:00;16.5;63.3
78696;SHT31;68030;51.980;5.646;2023-04-01T11:20:09;16.4;63.7
78696;SHT31;68030;51.980;5.646;2023-04-01T11:23:42;16.4;63.6
78696;SHT31;68030;51.980;5.646;2023-04-01T11:26:28;16.3;63.6
78696;SHT31;68030;51.980;5.646;2023-04-01T11:30:14;16.2;64.6
78696;SHT31;68030;51.980;5.646;2023-04-01T11:32:51;16.1;64.7
78696;SHT31;68030;51.980;5.646;2023-04-01T11:39:05;16.0;64.6
78696;SHT31;68030;51.980;5.646;2023-04-01T11:41:48;15.9;64.8
78696;SHT31;68030;51.980;5.646;2023-04-01T11:44:20;15.9;65.3
78696;SHT31;68030;51.980;5.646;2023-04-01T11:47:07;15.9;64.6
78696;SHT31;68030;51.980;5.646;2023-04-01T11:49:56;15.9;64.6
78696;SHT31;68030;51.980;5.646;2023-04-01T11:52:42;15.9;64.8
78696;SHT31;68030;51.980;5.646;2023-04-01T11:55:27;15.8;65.2
78696;SHT31;68030;51.980;5.646;2023-04-01T11:58:18;15.7;66.0
78696;SHT31;68030;51.980;5.646;2023-04-01T12:03:10;15.5;68.0
78696;SHT31;68030;51.980;5.646;2023-04-01T12:05:50;15.2;69.3
78696;SHT31;68030;51.980;5.646;2023-04-01T12:08:33;15.1;69.1
78696;SHT31;68030;51.980;5.646;2023-04-01T12:11:15;15.0;69.3
78696;SHT31;68030;51.980;5.646;2023-04-01T12:13:55;15.0;69.8
78696;SHT31;68030;51.980;5.646;2023-04-01T12:16:45;14.9;69.9
78696;SHT31;68030;51.980;5.646;2023-04-01T12:19:29;14.9;68.9
78696;SHT31;68030;51.980;5.646;2023-04-01T12:22:26;14.8;69.9
78696;SHT31;68030;51.980;5.646;2023-04-01T12:25:14;14.8;70.0
78696;SHT31;68030;51.980;5.646;2023-04-01T12:27:57;14.8;69.4
78696;SHT31;68030;51.980;5.646;2023-04-01T12:30:42;14.8;70.2
78696;SHT31;68030;51.980;5.646;2023-04-01T12:33:35;14.8;70.8
78696;SHT31;68030;51.980;5.646;2023-04-01T12:36:20;14.8;69.7
78696;SHT31;68030;51.980;5.646;2023-04-01T12:39:07;14.8;69.6
78696;SHT31;68030;51.980;5.646;2023-04-01T12:41:49;14.8;69.7
78696;SHT31;68030;51.980;5.646;2023-04-01T12:45:00;14.8;69.7
78696;SHT31;68030;51.980;5.646;2023-04-01T12:48:03;14.8;69.4
78696;SHT31;68030;51.980;5.646;2023-04-01T12:51:26;14.8;69.3
78696;SHT31;68030;51.980;5.646;2023-04-01T12:54:39;14.8;69.7
78696;SHT31;68030;51.980;5.646;2023-04-01T12:57:32;14.8;70.3
78696;SHT31;68030;51.980;5.646;2023-04-01T13:00:30;14.8;69.9
78696;SHT31;68030;51.980;5.646;2023-04-01T13:04:08;14.9;69.8
78696;SHT31;68030;51.980;5.646;2023-04-01T13:06:52;15.0;69.8
78696;SHT31;68030;51.980;5.646;2023-04-01T13:09:39;15.1;69.2
78696;SHT31;68030;51.980;5.646;2023-04-01T13:12:33;15.1;68.9
78696;SHT31;68030;51.980;5.646;2023-04-01T13:15:11;15.2;68.7
78696;SHT31;68030;51.980;5.646;2023-04-01T13:17:49;15.2;68.5
78696;SHT31;68030;51.980;5.646;2023-04-01T13:20:27;15.3;68.2
78696;SHT31;68030;51.980;5.646;2023-04-01T13:23:10;15.3;68.6
78696;SHT31;68030;51.980;5.646;2023-04-01T13:25:54;15.3;69.3
78696;SHT31;68030;51.980;5.646;2023-04-01T13:28:30;15.3;70.5
78696;SHT31;68030;51.980;5.646;2023-04-01T13:31:09;15.2;69.8
78696;SHT31;68030;51.980;5.646;2023-04-01T13:33:53;15.1;70.6
78696;SHT31;68030;51.980;5.646;2023-04-01T13:36:36;15.1;71.0
78696;SHT31;68030;51.980;5.646;2023-04-01T13:39:34;15.0;70.4
78696;SHT31;68030;51.980;5.646;2023-04-01T13:42:17;14.9;71.3
78696;SHT31;68030;51.980;5.646;2023-04-01T13:44:53;14.8;70.9
78696;SHT31;68030;51.980;5.646;2023-04-01T13:48:26;14.7;71.5
78696;SHT31;68030;51.980;5.646;2023-04-01T13:51:42;14.6;72.3
78696;SHT31;68030;51.980;5.646;2023-04-01T13:54:47;14.5;72.7
78696;SHT31;68030;51.980;5.646;2023-04-01T13:57:36;14.5;73.0
78696;SHT31;68030;51.980;5.646;2023-04-01T14:00:23;14.4;73.7
78696;SHT31;68030;51.980;5.646;2023-04-01T14:03:24;14.4;74.0
78696;SHT31;68030;51.980;5.646;2023-04-01T14:06:06;14.3;74.0
78696;SHT31;68030;51.980;5.646;2023-04-01T14:08:55;14.3;74.1
78696;SHT31;68030;51.980;5.646;2023-04-01T14:11:36;14.3;74.2
78696;SHT31;68030;51.980;5.646;2023-04-01T14:14:21;14.3;74.5
78696;SHT31;68030;51.980;5.646;2023-04-01T14:17:16;14.3;75.1
78696;SHT31;68030;51.980;5.646;2023-04-01T14:20:17;14.3;74.9
78696;SHT31;68030;51.980;5.646;2023-04-01T14:23:08;14.3;74.1
78696;SHT31;68030;51.980;5.646;2023-04-01T14:26:19;14.3;73.7
78696;SHT31;68030;51.980;5.646;2023-04-01T14:29:05;14.2;74.3
78696;SHT31;68030;51.980;5.646;2023-04-01T14:31:46;14.2;74.4
78696;SHT31;68030;51.980;5.646;2023-04-01T14:34:26;14.2;74.6
78696;SHT31;68030;51.980;5.646;2023-04-01T14:37:13;14.3;74.3
78696;SHT31;68030;51.980;5.646;2023-04-01T14:40:50;14.3;74.2
78696;SHT31;68030;51.980;5.646;2023-04-01T14:43:35;14.3;74.2
78696;SHT31;68030;51.980;5.646;2023-04-01T14:46:28;14.3;74.3
78696;SHT31;68030;51.980;5.646;2023-04-01T14:49:13;14.3;74.5
78696;SHT31;68030;51.980;5.646;2023-04-01T14:51:41;14.3;74.7
78696;SHT31;68030;51.980;5.646;2023-04-01T14:54:15;14.3;74.7
78696;SHT31;68030;51.980;5.646;2023-04-01T14:56:51;14.3;75.2
78696;SHT31;68030;51.980;5.646;2023-04-01T14:59:29;14.3;75.5
78696;SHT31;68030;51.980;5.646;2023-04-01T15:02:09;14.2;75.8
78696;SHT31;68030;51.980;5.646;2023-04-01T15:04:58;14.3;75.8
78696;SHT31;68030;51.980;5.646;2023-04-01T15:07:52;14.3;75.6
78696;SHT31;68030;51.980;5.646;2023-04-01T15:11:38;14.3;74.4
78696;SHT31;68030;51.980;5.646;2023-04-01T15:14:32;14.3;74.6
78696;SHT31;68030;51.980;5.646;2023-04-01T15:17:39;14.3;75.0
78696;SHT31;68030;51.980;5.646;2023-04-01T15:20:36;14.3;74.7
78696;SHT31;68030;51.980;5.646;2023-04-01T15:23:23;14.3;74.4
78696;SHT31;68030;51.980;5.646;2023-04-01T15:26:52;14.2;75.1
78696;SHT31;68030;51.980;5.646;2023-04-01T15:29:37;14.2;75.3
78696;SHT31;68030;51.980;5.646;2023-04-01T15:32:19;14.2;75.8
78696;SHT31;68030;51.980;5.646;2023-04-01T15:34:59;14.2;75.5
78696;SHT31;68030;51.980;5.646;2023-04-01T15:37:41;14.2;74.9
78696;SHT31;68030;51.980;5.646;2023-04-01T15:40:22;14.2;75.0
78696;SHT31;68030;51.980;5.646;2023-04-01T15:43:06;14.1;75.2
78696;SHT31;68030;51.980;5.646;2023-04-01T15:45:47;14.1;74.6
78696;SHT31;68030;51.980;5.646;2023-04-01T15:48:28;14.0;74.7
78696;SHT31;68030;51.980;5.646;2023-04-01T15:51:11;14.0;75.3
78696;SHT31;68030;51.980;5.646;2023-04-01T15:55:14;13.9;74.9
78696;SHT31;68030;51.980;5.646;2023-04-01T15:58:02;13.9;74.3
78696;SHT31;68030;51.980;5.646;2023-04-01T16:00:44;13.8;75.1
78696;SHT31;68030;51.980;5.646;2023-04-01T16:03:22;13.8;75.2
78696;SHT31;68030;51.980;5.646;2023-04-01T16:06:08;13.7;75.2
78696;SHT31;68030;51.980;5.646;2023-04-01T16:09:03;13.7;75.3
78696;SHT31;68030;51.980;5.646;2023-04-01T16:11:45;13.7;74.8
78696;SHT31;68030;51.980;5.646;2023-04-01T16:14:29;13.6;74.3
78696;SHT31;68030;51.980;5.646;2023-04-01T16:17:20;13.6;74.1
78696;SHT31;68030;51.980;5.646;2023-04-01T16:20:06;13.5;74.5
78696;SHT31;68030;51.980;5.646;2023-04-01T16:22:41;13.4;74.9
78696;SHT31;68030;51.980;5.646;2023-04-01T16:25:33;13.4;74.8
78696;SHT31;68030;51.980;5.646;2023-04-01T16:28:20;13.3;74.7
78696;SHT31;68030;51.980;5.646;2023-04-01T16:31:00;13.3;74.8
78696;SHT31;68030;51.980;5.646;2023-04-01T16:33:39;13.2;75.5
78696;SHT31;68030;51.980;5.646;2023-04-01T16:36:23;13.2;75.3
78696;SHT31;68030;51.980;5.646;2023-04-01T16:39:10;13.2;75.3
78696;SHT31;68030;51.980;5.646;2023-04-01T16:41:51;13.2;75.0
78696;SHT31;68030;51.980;5.646;2023-04-01T16:44:26;13.1;74.5
78696;SHT31;68030;51.980;5.646;2023-04-01T16:47:04;13.1;75.2
78696;SHT31;68030;51.980;5.646;2023-04-01T16:49:39;13.1;75.1
78696;SHT31;68030;51.980;5.646;2023-04-01T16:52:40;13.1;74.7
78696;SHT31;68030;51.980;5.646;2023-04-01T16:55:16;13.0;75.7
78696;SHT31;68030;51.980;5.646;2023-04-01T16:57:51;13.0;75.0
78696;SHT31;68030;51.980;5.646;2023-04-01T17:00:27;13.0;74.8
78696;SHT31;68030;51.980;5.646;2023-04-01T17:03:10;13.0;75.4
78696;SHT31;68030;51.980;5.646;2023-04-01T17:05:52;12.9;75.1
78696;SHT31;68030;51.980;5.646;2023-04-01T17:08:40;12.9;75.1
78696;SHT31;68030;51.980;5.646;2023-04-01T17:11:19;12.9;74.8
78696;SHT31;68030;51.980;5.646;2023-04-01T17:14:01;12.9;75.0
78696;SHT31;68030;51.980;5.646;2023-04-01T17:16:55;12.8;74.7
78696;SHT31;68030;51.980;5.646;2023-04-01T17:19:42;12.8;74.9
78696;SHT31;68030;51.980;5.646;2023-04-01T17:22:27;12.8;74.2
78696;SHT31;68030;51.980;5.646;2023-04-01T17:25:13;12.7;73.9
78696;SHT31;68030;51.980;5.646;2023-04-01T17:27:51;12.7;73.3
78696;SHT31;68030;51.980;5.646;2023-04-01T17:30:35;12.6;73.7
78696;SHT31;68030;51.980;5.646;2023-04-01T17:33:23;12.6;74.1
78696;SHT31;68030;51.980;5.646;2023-04-01T17:35:58;12.5;74.4
78696;SHT31;68030;51.980;5.646;2023-04-01T17:38:53;12.5;74.4
78696;SHT31;68030;51.980;5.646;2023-04-01T17:41:35;12.5;74.0
78696;SHT31;68030;51.980;5.646;2023-04-01T17:44:26;12.4;74.4
78696;SHT31;68030;51.980;5.646;2023-04-01T17:47:15;12.4;74.5
78696;SHT31;68030;51.980;5.646;2023-04-01T17:49:56;12.4;74.3
78696;SHT31;68030;51.980;5.646;2023-04-01T17:52:32;12.4;74.2
78696;SHT31;68030;51.980;5.646;2023-04-01T17:55:25;12.3;74.4
78696;SHT31;68030;51.980;5.646;2023-04-01T17:58:06;12.3;73.8
78696;SHT31;68030;51.980;5.646;2023-04-01T18:01:01;12.3;74.0
78696;SHT31;68030;51.980;5.646;2023-04-01T18:04:06;12.2;74.8
78696;SHT31;68030;51.980;5.646;2023-04-01T18:06:49;12.2;74.7
78696;SHT31;68030;51.980;5.646;2023-04-01T18:09:32;12.2;74.6
78696;SHT31;68030;51.980;5.646;2023-04-01T18:12:17;12.2;73.9
78696;SHT31;68030;51.980;5.646;2023-04-01T18:15:43;12.1;73.8
78696;SHT31;68030;51.980;5.646;2023-04-01T18:18:48;12.1;73.6
78696;SHT31;68030;51.980;5.646;2023-04-01T18:21:29;12.1;73.2
78696;SHT31;68030;51.980;5.646;2023-04-01T18:24:14;12.1;73.3
78696;SHT31;68030;51.980;5.646;2023-04-01T18:26:49;12.0;74.0
78696;SHT31;68030;51.980;5.646;2023-04-01T18:29:27;12.0;74.2
78696;SHT31;68030;51.980;5.646;2023-04-01T18:32:14;12.0;73.9
78696;SHT31;68030;51.980;5.646;2023-04-01T18:34:55;11.9;74.2
78696;SHT31;68030;51.980;5.646;2023-04-01T18:37:31;11.9;74.2